sensor_id;sensor_type;location;lat;lon;timestamp;temperature;humidity
21770;DHT22;11046;49.558;8.674;2022-07-04T05:32:38;15.70;73.50
21770;DHT22;11046;49.558;8.674;2022-07-04T05:35:39;15.90;73.90
21770;DHT22;11046;49.558;8.674;2022-07-04T05:38:41;16.20;73.40
21770;DHT22;11046;49.558;8.674;2022-07-04T05:41:42;16.50;73.00
21770;DHT22;11046;49.558;8.674;2022-07-04T05:44:43;16.70;72.40
21770;DHT22;11046;49.558;8.674;2022-07-04T05:47:43;17.00;72.30
21770;DHT22;11046;49.558;8.674;2022-07-04T05:50:47;17.30;72.00
21770;DHT22;11046;49.558;8.674;2022-07-04T05:53:47;17.50;71.80
21770;DHT22;11046;49.558;8.674;2022-07-04T05:56:48;17.80;71.30
21770;DHT22;11046;49.558;8.674;2022-07-04T05:59:49;18.00;70.50
21770;DHT22;11046;49.558;8.674;2022-07-04T06:02:50;18.20;70.00
21770;DHT22;11046;49.558;8.674;2022-07-04T06:05:50;18.50;69.50
21770;DHT22;11046;49.558;8.674;2022-07-04T06:08:51;18.70;68.70
21770;DHT22;11046;49.558;8.674;2022-07-04T06:11:52;19.00;68.00
21770;DHT22;11046;49.558;8.674;2022-07-04T06:14:52;19.20;67.70
21770;DHT22;11046;49.558;8.674;2022-07-04T06:17:53;19.50;67.20
21770;DHT22;11046;49.558;8.674;2022-07-04T06:20:53;19.70;66.50
21770;DHT22;11046;49.558;8.674;2022-07-04T06:23:54;19.90;66.00
21770;DHT22;11046;49.558;8.674;2022-07-04T06:26:55;20.10;65.60
21770;DHT22;11046;49.558;8.674;2022-07-04T06:29:56;20.30;65.10
21770;DHT22;11046;49.558;8.674;2022-07-04T06:32:57;20.70;64.70
21770;DHT22;11046;49.558;8.674;2022-07-04T06:35:59;21.10;63.90
21770;DHT22;11046;49.558;8.674;2022-07-04T06:39:00;21.30;62.80
21770;DHT22;11046;49.558;8.674;2022-07-04T06:42:01;21.70;61.70
21770;DHT22;11046;49.558;8.674;2022-07-04T06:45:01;21.80;60.60
21770;DHT22;11046;49.558;8.674;2022-07-04T06:48:04;22.10;59.90
21770;DHT22;11046;49.558;8.674;2022-07-04T06:51:05;22.40;59.30
21770;DHT22;11046;49.558;8.674;2022-07-04T06:54:05;22.80;58.60
21770;DHT22;11046;49.558;8.674;2022-07-04T06:57:06;23.10;58.00
21770;DHT22;11046;49.558;8.674;2022-07-04T07:00:08;23.40;57.20
21770;DHT22;11046;49.558;8.674;2022-07-04T07:03:09;23.60;56.60
21770;DHT22;11046;49.558;8.674;2022-07-04T07:06:10;23.80;56.10
21770;DHT22;11046;49.558;8.674;2022-07-04T07:09:11;24.00;55.30
21770;DHT22;11046;49.558;8.674;2022-07-04T07:12:11;24.10;54.80
21770;DHT22;11046;49.558;8.674;2022-07-04T07:15:12;24.30;54.40
21770;DHT22;11046;49.558;8.674;2022-07-04T07:18:13;24.50;54.10
21770;DHT22;11046;49.558;8.674;2022-07-04T07:21:14;24.80;53.50
21770;DHT22;11046;49.558;8.674;2022-07-04T07:24:15;25.10;53.00
21770;DHT22;11046;49.558;8.674;2022-07-04T07:27:16;25.30;52.20
21770;DHT22;11046;49.558;8.674;2022-07-04T07:30:16;25.50;51.60
21770;DHT22;11046;49.558;8.674;2022-07-04T07:33:17;25.80;51.00
21770;DHT22;11046;49.558;8.674;2022-07-04T07:36:18;25.70;50.40
21770;DHT22;11046;49.558;8.674;2022-07-04T07:39:19;25.90;50.20
21770;DHT22;11046;49.558;8.674;2022-07-04T07:42:20;26.10;49.80
21770;DHT22;11046;49.558;8.674;2022-07-04T07:45:21;26.30;49.10
21770;DHT22;11046;49.558;8.674;2022-07-04T07:48:22;26.40;48.60
21770;DHT22;11046;49.558;8.674;2022-07-04T07:51:22;26.40;48.10
21770;DHT22;11046;49.558;8.674;2022-07-04T07:54:23;26.80;47.40
21770;DHT22;11046;49.558;8.674;2022-07-04T07:57:23;27.10;46.40
21770;DHT22;11046;49.558;8.674;2022-07-04T08:00:24;27.10;46.20
21770;DHT22;11046;49.558;8.674;2022-07-04T08:03:25;27.00;45.60
21770;DHT22;11046;49.558;8.674;2022-07-04T08:06:44;26.80;45.70
21770;DHT22;11046;49.558;8.674;2022-07-04T08:09:45;26.60;45.70
21770;DHT22;11046;49.558;8.674;2022-07-04T08:12:46;26.80;45.70
21770;DHT22;11046;49.558;8.674;2022-07-04T08:15:47;27.20;45.10
21770;DHT22;11046;49.558;8.674;2022-07-04T08:18:48;27.40;44.80
21770;DHT22;11046;49.558;8.674;2022-07-04T08:21:48;27.30;44.60
21770;DHT22;11046;49.558;8.674;2022-07-04T08:24:49;27.40;44.30
21770;DHT22;11046;49.558;8.674;2022-07-04T08:27:50;27.50;44.00
21770;DHT22;11046;49.558;8.674;2022-07-04T08:30:50;27.70;43.50
21770;DHT22;11046;49.558;8.674;2022-07-04T08:33:51;28.10;42.80
21770;DHT22;11046;49.558;8.674;2022-07-04T08:36:53;28.40;42.40
21770;DHT22;11046;49.558;8.674;2022-07-04T08:39:54;28.20;42.10
21770;DHT22;11046;49.558;8.674;2022-07-04T08:42:55;28.40;42.50
21770;DHT22;11046;49.558;8.674;2022-07-04T08:45:56;28.50;42.10
21770;DHT22;11046;49.558;8.674;2022-07-04T08:48:58;28.70;41.80
21770;DHT22;11046;49.558;8.674;2022-07-04T08:52:10;29.00;41.10
21770;DHT22;11046;49.558;8.674;2022-07-04T08:55:13;29.10;41.10
21770;DHT22;11046;49.558;8.674;2022-07-04T08:58:33;28.90;40.70
21770;DHT22;11046;49.558;8.674;2022-07-04T09:01:34;28.90;41.00
21770;DHT22;11046;49.558;8.674;2022-07-04T09:04:36;29.20;40.60
21770;DHT22;11046;49.558;8.674;2022-07-04T09:07:37;29.40;40.30
21770;DHT22;11046;49.558;8.674;2022-07-04T09:10:39;29.40;39.90
21770;DHT22;11046;49.558;8.674;2022-07-04T09:13:39;29.40;39.60
21770;DHT22;11046;49.558;8.674;2022-07-04T09:16:40;29.30;39.40
21770;DHT22;11046;49.558;8.674;2022-07-04T09:19:41;29.30;39.10
21770;DHT22;11046;49.558;8.674;2022-07-04T09:22:42;29.50;39.80
21770;DHT22;11046;49.558;8.674;2022-07-04T09:25:45;29.60;38.80
21770;DHT22;11046;49.558;8.674;2022-07-04T09:28:54;29.70;38.20
21770;DHT22;11046;49.558;8.674;2022-07-04T09:31:57;29.60;37.30
21770;DHT22;11046;49.558;8.674;2022-07-04T09:34:58;29.70;38.10
21770;DHT22;11046;49.558;8.674;2022-07-04T09:38:03;29.90;37.50
21770;DHT22;11046;49.558;8.674;2022-07-04T09:41:04;29.70;36.90
21770;DHT22;11046;49.558;8.674;2022-07-04T09:44:28;29.70;37.40
21770;DHT22;11046;49.558;8.674;2022-07-04T09:47:30;30.00;37.60
21770;DHT22;11046;49.558;8.674;2022-07-04T09:50:30;30.00;37.50
21770;DHT22;11046;49.558;8.674;2022-07-04T09:53:33;30.10;37.10
21770;DHT22;11046;49.558;8.674;2022-07-04T09:56:45;30.10;36.80
21770;DHT22;11046;49.558;8.674;2022-07-04T09:59:46;30.00;36.40
21770;DHT22;11046;49.558;8.674;2022-07-04T10:02:48;29.80;36.70
21770;DHT22;11046;49.558;8.674;2022-07-04T10:09:16;29.90;36.20
21770;DHT22;11046;49.558;8.674;2022-07-04T10:12:27;29.80;36.40
21770;DHT22;11046;49.558;8.674;2022-07-04T10:15:29;30.00;36.30
21770;DHT22;11046;49.558;8.674;2022-07-04T10:18:30;30.10;36.60
21770;DHT22;11046;49.558;8.674;2022-07-04T10:21:31;30.10;36.30
21770;DHT22;11046;49.558;8.674;2022-07-04T10:24:32;30.30;35.70
21770;DHT22;11046;49.558;8.674;2022-07-04T10:27:34;30.50;35.40
21770;DHT22;11046;49.558;8.674;2022-07-04T10:30:36;30.60;35.20
21770;DHT22;11046;49.558;8.674;2022-07-04T10:33:37;30.70;35.20
21770;DHT22;11046;49.558;8.674;2022-07-04T10:36:38;30.70;35.10
21770;DHT22;11046;49.558;8.674;2022-07-04T10:39:40;30.70;34.90
21770;DHT22;11046;49.558;8.674;2022-07-04T10:42:41;30.50;34.50
21770;DHT22;11046;49.558;8.674;2022-07-04T10:45:41;30.60;35.40
21770;DHT22;11046;49.558;8.674;2022-07-04T10:48:52;30.80;34.90
21770;DHT22;11046;49.558;8.674;2022-07-04T10:51:55;30.70;34.30
21770;DHT22;11046;49.558;8.674;2022-07-04T10:54:58;30.60;34.50
21770;DHT22;11046;49.558;8.674;2022-07-04T10:58:10;30.70;34.40
21770;DHT22;11046;49.558;8.674;2022-07-04T11:01:12;31.00;34.20
21770;DHT22;11046;49.558;8.674;2022-07-04T11:07:57;31.10;33.30
21770;DHT22;11046;49.558;8.674;2022-07-04T11:10:58;31.10;33.70
21770;DHT22;11046;49.558;8.674;2022-07-04T11:14:34;30.80;34.00
21770;DHT22;11046;49.558;8.674;2022-07-04T11:17:37;30.80;34.10
21770;DHT22;11046;49.558;8.674;2022-07-04T11:20:42;30.80;33.90
21770;DHT22;11046;49.558;8.674;2022-07-04T11:23:49;30.90;33.90
21770;DHT22;11046;49.558;8.674;2022-07-04T11:26:50;30.90;34.10
21770;DHT22;11046;49.558;8.674;2022-07-04T11:29:52;31.00;34.20
21770;DHT22;11046;49.558;8.674;2022-07-04T11:32:53;31.30;33.90
21770;DHT22;11046;49.558;8.674;2022-07-04T11:36:11;31.60;33.30
21770;DHT22;11046;49.558;8.674;2022-07-04T11:39:19;31.50;32.80
21770;DHT22;11046;49.558;8.674;2022-07-04T11:42:20;31.50;33.00
21770;DHT22;11046;49.558;8.674;2022-07-04T11:45:39;31.50;33.00
21770;DHT22;11046;49.558;8.674;2022-07-04T11:48:40;31.50;33.00
21770;DHT22;11046;49.558;8.674;2022-07-04T11:51:42;31.60;32.90
21770;DHT22;11046;49.558;8.674;2022-07-04T11:54:45;31.50;33.00
21770;DHT22;11046;49.558;8.674;2022-07-04T11:57:50;31.60;32.90
21770;DHT22;11046;49.558;8.674;2022-07-04T12:00:52;31.50;32.80
21770;DHT22;11046;49.558;8.674;2022-07-04T12:03:53;31.60;33.30
21770;DHT22;11046;49.558;8.674;2022-07-04T12:06:53;31.40;32.80
21770;DHT22;11046;49.558;8.674;2022-07-04T12:09:55;31.40;32.50
21770;DHT22;11046;49.558;8.674;2022-07-04T12:13:01;31.40;32.40
21770;DHT22;11046;49.558;8.674;2022-07-04T12:16:13;31.40;32.70
21770;DHT22;11046;49.558;8.674;2022-07-04T12:19:13;31.40;32.90
21770;DHT22;11046;49.558;8.674;2022-07-04T12:22:28;31.40;32.90
21770;DHT22;11046;49.558;8.674;2022-07-04T12:25:35;31.40;31.70
21770;DHT22;11046;49.558;8.674;2022-07-04T12:28:41;31.40;31.50
21770;DHT22;11046;49.558;8.674;2022-07-04T12:31:43;31.30;31.20
21770;DHT22;11046;49.558;8.674;2022-07-04T12:34:44;31.30;31.20
21770;DHT22;11046;49.558;8.674;2022-07-04T12:38:03;31.30;30.70
21770;DHT22;11046;49.558;8.674;2022-07-04T12:44:08;31.30;31.20
21770;DHT22;11046;49.558;8.674;2022-07-04T12:47:09;31.40;31.30
21770;DHT22;11046;49.558;8.674;2022-07-04T12:50:11;31.40;31.00
21770;DHT22;11046;49.558;8.674;2022-07-04T12:53:12;31.40;31.50
21770;DHT22;11046;49.558;8.674;2022-07-04T12:56:32;31.30;31.30
21770;DHT22;11046;49.558;8.674;2022-07-04T12:59:33;31.50;31.20
21770;DHT22;11046;49.558;8.674;2022-07-04T13:02:34;31.20;31.20
21770;DHT22;11046;49.558;8.674;2022-07-04T13:05:36;31.10;31.50
21770;DHT22;11046;49.558;8.674;2022-07-04T13:08:37;31.20;31.80
21770;DHT22;11046;49.558;8.674;2022-07-04T13:11:38;31.20;31.20
21770;DHT22;11046;49.558;8.674;2022-07-04T13:14:58;31.30;31.10
21770;DHT22;11046;49.558;8.674;2022-07-04T13:18:00;31.30;30.80
21770;DHT22;11046;49.558;8.674;2022-07-04T13:21:00;31.10;30.50
21770;DHT22;11046;49.558;8.674;2022-07-04T13:24:01;31.10;30.60
21770;DHT22;11046;49.558;8.674;2022-07-04T13:27:02;31.10;30.70
21770;DHT22;11046;49.558;8.674;2022-07-04T13:30:03;31.10;30.60
21770;DHT22;11046;49.558;8.674;2022-07-04T13:33:04;31.20;30.50
21770;DHT22;11046;49.558;8.674;2022-07-04T13:36:04;31.20;30.40
21770;DHT22;11046;49.558;8.674;2022-07-04T13:39:05;31.40;30.40
21770;DHT22;11046;49.558;8.674;2022-07-04T13:42:06;31.40;30.60
21770;DHT22;11046;49.558;8.674;2022-07-04T13:45:08;31.40;30.70
21770;DHT22;11046;49.558;8.674;2022-07-04T13:48:08;31.30;30.30
21770;DHT22;11046;49.558;8.674;2022-07-04T13:51:09;31.10;30.00
21770;DHT22;11046;49.558;8.674;2022-07-04T13:54:10;30.90;30.00
21770;DHT22;11046;49.558;8.674;2022-07-04T13:57:11;30.70;30.20
21770;DHT22;11046;49.558;8.674;2022-07-04T14:00:12;30.60;30.30
21770;DHT22;11046;49.558;8.674;2022-07-04T14:03:13;30.50;30.30
21770;DHT22;11046;49.558;8.674;2022-07-04T14:06:14;30.40;30.90
21770;DHT22;11046;49.558;8.674;2022-07-04T14:09:16;30.40;31.50
21770;DHT22;11046;49.558;8.674;2022-07-04T14:12:17;30.50;31.20
21770;DHT22;11046;49.558;8.674;2022-07-04T14:15:17;30.50;31.00
21770;DHT22;11046;49.558;8.674;2022-07-04T14:18:18;30.50;31.00
21770;DHT22;11046;49.558;8.674;2022-07-04T14:21:19;30.60;30.90
21770;DHT22;11046;49.558;8.674;2022-07-04T14:24:19;30.60;30.50
21770;DHT22;11046;49.558;8.674;2022-07-04T14:27:20;30.40;30.50
21770;DHT22;11046;49.558;8.674;2022-07-04T14:30:21;30.50;30.80
21770;DHT22;11046;49.558;8.674;2022-07-04T14:33:21;30.40;30.90
21770;DHT22;11046;49.558;8.674;2022-07-04T14:36:22;30.30;30.80
21770;DHT22;11046;49.558;8.674;2022-07-04T14:39:23;30.30;31.00
21770;DHT22;11046;49.558;8.674;2022-07-04T14:42:23;30.50;30.80
21770;DHT22;11046;49.558;8.674;2022-07-04T14:45:24;30.50;30.40
21770;DHT22;11046;49.558;8.674;2022-07-04T14:48:25;30.60;30.40
21770;DHT22;11046;49.558;8.674;2022-07-04T14:51:25;30.70;30.40
21770;DHT22;11046;49.558;8.674;2022-07-04T14:54:26;30.70;30.20
21770;DHT22;11046;49.558;8.674;2022-07-04T14:57:27;30.70;30.40
21770;DHT22;11046;49.558;8.674;2022-07-04T15:00:28;30.60;30.60
21770;DHT22;11046;49.558;8.674;2022-07-04T15:03:28;30.60;30.40
21770;DHT22;11046;49.558;8.674;2022-07-04T15:06:29;30.50;30.30
21770;DHT22;11046;49.558;8.674;2022-07-04T15:09:30;30.50;30.10
21770;DHT22;11046;49.558;8.674;2022-07-04T15:12:30;30.40;30.00
21770;DHT22;11046;49.558;8.674;2022-07-04T15:15:31;30.20;30.40
21770;DHT22;11046;49.558;8.674;2022-07-04T15:18:32;30.10;30.80
21770;DHT22;11046;49.558;8.674;2022-07-04T15:21:33;30.10;31.00
21770;DHT22;11046;49.558;8.674;2022-07-04T15:24:52;30.20;30.90
21770;DHT22;11046;49.558;8.674;2022-07-04T15:27:53;30.20;30.80
21770;DHT22;11046;49.558;8.674;2022-07-04T15:30:54;30.10;30.80
21770;DHT22;11046;49.558;8.674;2022-07-04T15:33:55;30.00;30.90
21770;DHT22;11046;49.558;8.674;2022-07-04T15:36:55;29.80;30.70
21770;DHT22;11046;49.558;8.674;2022-07-04T15:39:56;29.60;30.50
21770;DHT22;11046;49.558;8.674;2022-07-04T15:42:58;29.40;30.80
21770;DHT22;11046;49.558;8.674;2022-07-04T15:45:58;29.50;30.60
21770;DHT22;11046;49.558;8.674;2022-07-04T15:49:02;29.40;30.40
21770;DHT22;11046;49.558;8.674;2022-07-04T15:52:04;29.40;30.80
21770;DHT22;11046;49.558;8.674;2022-07-04T15:55:05;29.40;30.80
21770;DHT22;11046;49.558;8.674;2022-07-04T15:58:06;29.30;30.50
21770;DHT22;11046;49.558;8.674;2022-07-04T16:01:07;29.20;31.30
21770;DHT22;11046;49.558;8.674;2022-07-04T16:04:08;29.30;30.40
21770;DHT22;11046;49.558;8.674;2022-07-04T16:07:09;29.20;30.20
21770;DHT22;11046;49.558;8.674;2022-07-04T16:10:09;29.00;30.40
21770;DHT22;11046;49.558;8.674;2022-07-04T16:13:10;28.90;30.70
21770;DHT22;11046;49.558;8.674;2022-07-04T16:16:11;28.80;30.80
21770;DHT22;11046;49.558;8.674;2022-07-04T16:19:12;28.90;31.00
21770;DHT22;11046;49.558;8.674;2022-07-04T16:22:17;28.90;31.50
21770;DHT22;11046;49.558;8.674;2022-07-04T16:25:18;28.90;31.10
21770;DHT22;11046;49.558;8.674;2022-07-04T16:28:19;28.70;30.80
21770;DHT22;11046;49.558;8.674;2022-07-04T16:31:19;28.70;30.80
21770;DHT22;11046;49.558;8.674;2022-07-04T16:34:20;28.70;30.90
21770;DHT22;11046;49.558;8.674;2022-07-04T16:37:21;28.70;30.70
21770;DHT22;11046;49.558;8.674;2022-07-04T16:40:22;28.60;30.80
21770;DHT22;11046;49.558;8.674;2022-07-04T16:43:23;28.40;30.80
21770;DHT22;11046;49.558;8.674;2022-07-04T16:46:24;28.30;30.70
21770;DHT22;11046;49.558;8.674;2022-07-04T16:49:24;28.10;30.90
21770;DHT22;11046;49.558;8.674;2022-07-04T16:52:25;28.00;31.00
21770;DHT22;11046;49.558;8.674;2022-07-04T16:55:26;28.00;31.60
21770;DHT22;11046;49.558;8.674;2022-07-04T16:58:26;28.00;31.60
21770;DHT22;11046;49.558;8.674;2022-07-04T17:01:27;28.00;31.40
21770;DHT22;11046;49.558;8.674;2022-07-04T17:04:28;28.00;31.20
21770;DHT22;11046;49.558;8.674;2022-07-04T17:07:28;28.00;31.50
21770;DHT22;11046;49.558;8.674;2022-07-04T17:10:29;28.00;31.30
21770;DHT22;11046;49.558;8.674;2022-07-04T17:13:30;28.00;31.10
21770;DHT22;11046;49.558;8.674;2022-07-04T17:16:31;28.00;31.10
21770;DHT22;11046;49.558;8.674;2022-07-04T17:19:31;28.00;31.40
21770;DHT22;11046;49.558;8.674;2022-07-04T17:22:32;27.90;31.20
21770;DHT22;11046;49.558;8.674;2022-07-04T17:25:33;27.90;31.40
21770;DHT22;11046;49.558;8.674;2022-07-04T17:28:34;27.90;31.50
21770;DHT22;11046;49.558;8.674;2022-07-04T17:31:35;27.90;31.50
21770;DHT22;11046;49.558;8.674;2022-07-04T17:34:35;27.80;31.40
21770;DHT22;11046;49.558;8.674;2022-07-04T17:37:36;27.90;31.20
21770;DHT22;11046;49.558;8.674;2022-07-04T17:40:37;27.80;31.00
21770;DHT22;11046;49.558;8.674;2022-07-04T17:43:37;27.80;31.30
21770;DHT22;11046;49.558;8.674;2022-07-04T17:46:39;27.70;31.30
21770;DHT22;11046;49.558;8.674;2022-07-04T17:49:41;27.80;31.60
21770;DHT22;11046;49.558;8.674;2022-07-04T17:52:42;27.60;32.00
21770;DHT22;11046;49.558;8.674;2022-07-04T17:55:42;27.50;32.10
21770;DHT22;11046;49.558;8.674;2022-07-04T17:58:43;27.40;31.80
21770;DHT22;11046;49.558;8.674;2022-07-04T18:01:44;27.50;32.20
21770;DHT22;11046;49.558;8.674;2022-07-04T18:04:44;27.30;32.20
21770;DHT22;11046;49.558;8.674;2022-07-04T18:07:45;27.20;31.90
21770;DHT22;11046;49.558;8.674;2022-07-04T18:10:46;27.10;31.60
21770;DHT22;11046;49.558;8.674;2022-07-04T18:13:47;27.00;32.10
21770;DHT22;11046;49.558;8.674;2022-07-04T18:16:48;26.90;32.80
21770;DHT22;11046;49.558;8.674;2022-07-04T18:19:49;26.90;33.00
21770;DHT22;11046;49.558;8.674;2022-07-04T18:22:50;26.70;32.70
21770;DHT22;11046;49.558;8.674;2022-07-04T18:25:51;26.70;32.70
21770;DHT22;11046;49.558;8.674;2022-07-04T18:28:52;26.60;32.90
21770;DHT22;11046;49.558;8.674;2022-07-04T18:31:54;26.60;33.70
21770;DHT22;11046;49.558;8.674;2022-07-04T18:34:55;26.50;34.10
21770;DHT22;11046;49.558;8.674;2022-07-04T18:37:57;26.30;34.10
21770;DHT22;11046;49.558;8.674;2022-07-04T18:40:58;26.20;35.20
21770;DHT22;11046;49.558;8.674;2022-07-04T18:44:17;26.10;34.50
21770;DHT22;11046;49.558;8.674;2022-07-04T18:47:18;26.00;34.90
21770;DHT22;11046;49.558;8.674;2022-07-04T18:50:18;25.80;35.30
21770;DHT22;11046;49.558;8.674;2022-07-04T18:53:20;25.70;35.40
21770;DHT22;11046;49.558;8.674;2022-07-04T18:56:21;25.50;35.50
21770;DHT22;11046;49.558;8.674;2022-07-04T18:59:22;25.40;35.80
21770;DHT22;11046;49.558;8.674;2022-07-04T19:02:22;25.20;36.10
21770;DHT22;11046;49.558;8.674;2022-07-04T19:05:23;25.10;36.30
21770;DHT22;11046;49.558;8.674;2022-07-04T19:08:24;25.00;36.60
21770;DHT22;11046;49.558;8.674;2022-07-04T19:11:25;24.70;36.60
21770;DHT22;11046;49.558;8.674;2022-07-04T19:14:26;24.60;37.00
21770;DHT22;11046;49.558;8.674;2022-07-04T19:17:27;24.50;37.50
21770;DHT22;11046;49.558;8.674;2022-07-04T19:20:28;24.40;37.50
21770;DHT22;11046;49.558;8.674;2022-07-04T19:23:29;24.20;37.50
21770;DHT22;11046;49.558;8.674;2022-07-04T19:26:30;24.10;37.70
21770;DHT22;11046;49.558;8.674;2022-07-04T19:29:31;24.10;38.20
21770;DHT22;11046;49.558;8.674;2022-07-04T19:32:36;24.00;38.80
21770;DHT22;11046;49.558;8.674;2022-07-04T19:35:37;23.90;38.80
21770;DHT22;11046;49.558;8.674;2022-07-04T19:38:38;23.60;38.60
21770;DHT22;11046;49.558;8.674;2022-07-04T19:41:39;23.40;38.40
21770;DHT22;11046;49.558;8.674;2022-07-04T19:44:39;23.20;38.40
21770;DHT22;11046;49.558;8.674;2022-07-04T19:47:40;23.10;38.70
21770;DHT22;11046;49.558;8.674;2022-07-04T19:50:42;22.90;38.90
21770;DHT22;11046;49.558;8.674;2022-07-04T19:53:43;22.90;39.30
21770;DHT22;11046;49.558;8.674;2022-07-04T19:56:43;22.80;39.50
21770;DHT22;11046;49.558;8.674;2022-07-04T19:59:44;22.90;39.50
21770;DHT22;11046;49.558;8.674;2022-07-04T20:02:45;22.80;39.50
21770;DHT22;11046;49.558;8.674;2022-07-04T20:05:45;22.70;40.00
21770;DHT22;11046;49.558;8.674;2022-07-04T20:08:46;22.60;41.30
21770;DHT22;11046;49.558;8.674;2022-07-04T20:11:47;22.50;41.10
21770;DHT22;11046;49.558;8.674;2022-07-04T20:14:48;22.40;41.30
21770;DHT22;11046;49.558;8.674;2022-07-04T20:17:49;22.40;41.50
21770;DHT22;11046;49.558;8.674;2022-07-04T20:20:50;22.40;41.50
21770;DHT22;11046;49.558;8.674;2022-07-04T20:23:50;22.20;41.40
21770;DHT22;11046;49.558;8.674;2022-07-04T20:26:51;22.10;42.30
21770;DHT22;11046;49.558;8.674;2022-07-04T20:29:52;21.90;42.00
21770;DHT22;11046;49.558;8.674;2022-07-04T20:32:53;21.90;42.30
21770;DHT22;11046;49.558;8.674;2022-07-04T20:35:53;21.80;42.70
21770;DHT22;11046;49.558;8.674;2022-07-04T20:38:54;21.80;42.80
21770;DHT22;11046;49.558;8.674;2022-07-04T20:41:55;21.70;43.30
21770;DHT22;11046;49.558;8.674;2022-07-04T20:44:56;21.70;43.50
21770;DHT22;11046;49.558;8.674;2022-07-04T20:47:56;21.60;43.50
21770;DHT22;11046;49.558;8.674;2022-07-04T20:50:58;21.60;43.50
21770;DHT22;11046;49.558;8.674;2022-07-04T20:53:58;21.40;43.80
21770;DHT22;11046;49.558;8.674;2022-07-04T20:56:59;21.40;43.90
21770;DHT22;11046;49.558;8.674;2022-07-04T21:00:00;21.30;44.00
21770;DHT22;11046;49.558;8.674;2022-07-04T21:03:00;21.30;44.00
21770;DHT22;11046;49.558;8.674;2022-07-04T21:06:01;21.20;44.10
21770;DHT22;11046;49.558;8.674;2022-07-04T21:09:03;21.20;44.20
21770;DHT22;11046;49.558;8.674;2022-07-04T21:12:04;21.10;44.30
21770;DHT22;11046;49.558;8.674;2022-07-04T21:15:06;21.10;44.50
21770;DHT22;11046;49.558;8.674;2022-07-04T21:18:07;21.10;44.70
21770;DHT22;11046;49.558;8.674;2022-07-04T21:21:08;21.00;44.80
21770;DHT22;11046;49.558;8.674;2022-07-04T21:24:09;20.90;45.10
21770;DHT22;11046;49.558;8.674;2022-07-04T21:27:11;20.80;45.50
21770;DHT22;11046;49.558;8.674;2022-07-04T21:30:12;20.80;45.50
21770;DHT22;11046;49.558;8.674;2022-07-04T21:33:13;20.80;45.40
21770;DHT22;11046;49.558;8.674;2022-07-04T21:36:15;20.70;45.50
21770;DHT22;11046;49.558;8.674;2022-07-04T21:39:16;20.70;45.80
21770;DHT22;11046;49.558;8.674;2022-07-04T21:42:17;20.50;46.00
21770;DHT22;11046;49.558;8.674;2022-07-04T21:45:17;20.50;46.30
21770;DHT22;11046;49.558;8.674;2022-07-04T21:48:18;20.40;46.60
21770;DHT22;11046;49.558;8.674;2022-07-04T21:51:19;20.30;46.90
21770;DHT22;11046;49.558;8.674;2022-07-04T21:54:20;20.30;47.00
21770;DHT22;11046;49.558;8.674;2022-07-04T21:57:20;20.20;47.10
21770;DHT22;11046;49.558;8.674;2022-07-04T22:00:21;20.20;47.10
21770;DHT22;11046;49.558;8.674;2022-07-04T22:03:22;20.20;47.20
21770;DHT22;11046;49.558;8.674;2022-07-04T22:06:22;20.20;47.50
21770;DHT22;11046;49.558;8.674;2022-07-04T22:09:23;20.00;47.80
21770;DHT22;11046;49.558;8.674;2022-07-04T22:12:23;20.00;48.00
21770;DHT22;11046;49.558;8.674;2022-07-04T22:15:25;20.00;48.10
21770;DHT22;11046;49.558;8.674;2022-07-04T22:18:25;19.80;48.20
21770;DHT22;11046;49.558;8.674;2022-07-04T22:21:26;19.80;48.20
21770;DHT22;11046;49.558;8.674;2022-07-04T22:24:27;19.70;48.20
21770;DHT22;11046;49.558;8.674;2022-07-04T22:27:27;19.70;48.30
21770;DHT22;11046;49.558;8.674;2022-07-04T22:30:28;19.70;48.30
21770;DHT22;11046;49.558;8.674;2022-07-04T22:33:29;19.70;48.20
21770;DHT22;11046;49.558;8.674;2022-07-04T22:36:30;19.70;48.20
21770;DHT22;11046;49.558;8.674;2022-07-04T22:39:30;19.70;48.30
21770;DHT22;11046;49.558;8.674;2022-07-04T22:42:35;19.70;48.30
21770;DHT22;11046;49.558;8.674;2022-07-04T22:45:36;19.60;48.30
21770;DHT22;11046;49.558;8.674;2022-07-04T22:48:36;19.60;48.20
21770;DHT22;11046;49.558;8.674;2022-07-04T22:51:37;19.60;48.10
21770;DHT22;11046;49.558;8.674;2022-07-04T22:54:38;19.60;48.20
21770;DHT22;11046;49.558;8.674;2022-07-04T22:57:54;19.70;48.20
21770;DHT22;11046;49.558;8.674;2022-07-04T23:00:55;19.60;48.20
21770;DHT22;11046;49.558;8.674;2022-07-04T23:03:56;19.60;48.40
21770;DHT22;11046;49.558;8.674;2022-07-04T23:06:57;19.50;48.50
21770;DHT22;11046;49.558;8.674;2022-07-04T23:09:58;19.50;48.50
21770;DHT22;11046;49.558;8.674;2022-07-04T23:12:59;19.40;48.40
21770;DHT22;11046;49.558;8.674;2022-07-04T23:15:59;19.50;48.40
21770;DHT22;11046;49.558;8.674;2022-07-04T23:19:00;19.40;48.40
21770;DHT22;11046;49.558;8.674;2022-07-04T23:22:02;19.40;48.70
21770;DHT22;11046;49.558;8.674;2022-07-04T23:25:03;19.30;48.70
21770;DHT22;11046;49.558;8.674;2022-07-04T23:28:04;19.30;48.70
21770;DHT22;11046;49.558;8.674;2022-07-04T23:31:05;19.30;48.80
21770;DHT22;11046;49.558;8.674;2022-07-04T23:34:05;19.20;48.80
21770;DHT22;11046;49.558;8.674;2022-07-04T23:37:06;19.20;49.20
21770;DHT22;11046;49.558;8.674;2022-07-04T23:40:07;19.00;49.40
21770;DHT22;11046;49.558;8.674;2022-07-04T23:43:08;19.00;50.20
21770;DHT22;11046;49.558;8.674;2022-07-04T23:46:09;19.00;49.50
21770;DHT22;11046;49.558;8.674;2022-07-04T23:49:10;19.00;49.60
21770;DHT22;11046;49.558;8.674;2022-07-04T23:52:10;19.00;49.80
21770;DHT22;11046;49.558;8.674;2022-07-04T23:55:11;18.90;50.00
21770;DHT22;11046;49.558;8.674;2022-07-04T23:58:12;18.80;50.10
